< Typhoon 197828 1978 Season Typhoon 197830 >
Typhoon 197829 (VIOLA)
General InformationTrack Information on Google MapsDetailed Wind Information || Disaster Info.ResourceGoogle EarthGE AnimationAtom FeedGeoJSON
Detalied Best Track (Time Zone = UTC)
Year Month Day Hour Lat. Long. Pressure (hPa) Wind (kt) Class Image Chart
1978 11 17 00 6.5 151.0 1004 0 2 -- Chart
1978 11 17 06 8.0 150.0 998 0 2 -- Chart
1978 11 17 12 8.5 148.5 998 0 2 -- Chart
1978 11 17 18 9.0 147.1 996 35 3 -- Chart
1978 11 18 00 9.5 145.8 994 40 3 -- Chart
1978 11 18 06 10.3 144.5 994 45 3 -- Chart
1978 11 18 12 10.8 143.2 992 40 3 -- Chart
1978 11 18 18 11.3 141.9 985 50 4 -- Chart
1978 11 19 00 11.8 140.3 985 50 4 -- Chart
1978 11 19 06 12.3 138.9 985 50 4 -- Chart
1978 11 19 12 13.0 138.0 980 50 4 -- Chart
1978 11 19 18 13.5 137.1 975 60 4 -- Chart
1978 11 20 00 14.0 136.5 970 60 4 -- Chart
1978 11 20 06 14.5 135.8 960 70 5 -- Chart
1978 11 20 12 15.0 135.0 945 70 5 -- Chart
1978 11 20 18 15.5 134.0 935 80 5 -- Chart
1978 11 21 00 16.0 133.1 920 90 5 -- Chart
1978 11 21 06 16.3 132.4 910 100 5 -- Chart
1978 11 21 12 16.9 131.5 910 100 5 -- Chart
1978 11 21 18 17.6 130.8 920 100 5 -- Chart
1978 11 22 00 18.3 130.0 920 105 5 -- Chart
1978 11 22 06 19.2 129.4 930 95 5 -- Chart
1978 11 22 12 20.2 128.6 935 90 5 -- Chart
1978 11 22 18 21.0 128.5 940 90 5 -- Chart
1978 11 23 00 21.8 129.1 945 90 5 -- Chart
1978 11 23 06 22.9 130.0 950 90 5 -- Chart
1978 11 23 12 23.7 131.0 955 90 5 -- Chart
1978 11 23 18 24.4 132.3 965 70 5 -- Chart
1978 11 24 00 25.1 133.8 985 55 4 -- Chart
1978 11 24 06 24.6 135.6 994 50 4 -- Chart
1978 11 24 12 24.2 136.2 994 45 3 -- Chart
1978 11 24 18 23.7 136.5 998 0 6 -- Chart
1978 11 25 00 23.5 136.6 1000 0 6 -- Chart
1978 11 25 06 23.3 136.7 1002 0 6 -- Chart
1978 11 25 12 23.2 136.8 1002 0 6 -- Chart
1978 11 25 18 23.0 137.1 1004 0 6 -- Chart
1978 11 26 00 22.6 137.4 1004 0 6 -- Chart
1978 11 26 06 22.4 137.6 1004 0 6 -- Chart
1978 11 26 12 22.0 137.6 1006 0 6 -- Chart
1978 11 26 18 21.5 137.8 1006 0 6 -- Chart
1978 11 27 00 21.0 138.1 1006 0 6 -- Chart
1978 11 27 06 20.6 138.5 1006 0 6 -- Chart
Japan Meteorological Agency Best Track Data | Correction Date : 1992-10-21
< Typhoon 197828 1978 Season Typhoon 197830 >

Help